sensor_id;sensor_type;location;lat;lon;timestamp;P1;durP1;ratioP1;P2;durP2;ratioP2
15677;SDS011;7939;50.814;6.368;2022-10-31T00:01:09;8.13;;;4.43;;
15677;SDS011;7939;50.814;6.368;2022-10-31T00:03:36;8.57;;;4.55;;
15677;SDS011;7939;50.814;6.368;2022-10-31T00:06:03;9.70;;;5.35;;
15677;SDS011;7939;50.814;6.368;2022-10-31T00:08:30;9.25;;;5.50;;
15677;SDS011;7939;50.814;6.368;2022-10-31T00:10:56;10.73;;;6.25;;
15677;SDS011;7939;50.814;6.368;2022-10-31T00:13:24;8.77;;;5.97;;
15677;SDS011;7939;50.814;6.368;2022-10-31T00:15:51;14.73;;;7.25;;
15677;SDS011;7939;50.814;6.368;2022-10-31T00:18:17;10.07;;;5.28;;
15677;SDS011;7939;50.814;6.368;2022-10-31T00:20:44;11.88;;;5.40;;
15677;SDS011;7939;50.814;6.368;2022-10-31T00:23:11;7.53;;;4.82;;
15677;SDS011;7939;50.814;6.368;2022-10-31T00:25:38;10.32;;;4.78;;
15677;SDS011;7939;50.814;6.368;2022-10-31T00:28:06;8.88;;;5.22;;
15677;SDS011;7939;50.814;6.368;2022-10-31T00:30:36;7.30;;;4.82;;
15677;SDS011;7939;50.814;6.368;2022-10-31T00:33:02;6.05;;;4.28;;
15677;SDS011;7939;50.814;6.368;2022-10-31T00:35:30;8.25;;;5.13;;
15677;SDS011;7939;50.814;6.368;2022-10-31T00:37:56;10.32;;;5.20;;
15677;SDS011;7939;50.814;6.368;2022-10-31T00:40:23;8.48;;;5.13;;
15677;SDS011;7939;50.814;6.368;2022-10-31T00:42:49;9.95;;;5.20;;
15677;SDS011;7939;50.814;6.368;2022-10-31T00:45:16;8.65;;;5.05;;
15677;SDS011;7939;50.814;6.368;2022-10-31T00:47:44;10.25;;;5.10;;
15677;SDS011;7939;50.814;6.368;2022-10-31T00:50:10;6.20;;;4.47;;
15677;SDS011;7939;50.814;6.368;2022-10-31T00:52:37;9.18;;;5.03;;
15677;SDS011;7939;50.814;6.368;2022-10-31T00:55:04;8.05;;;4.90;;
15677;SDS011;7939;50.814;6.368;2022-10-31T00:57:31;8.90;;;5.40;;
15677;SDS011;7939;50.814;6.368;2022-10-31T00:59:58;7.60;;;5.30;;
15677;SDS011;7939;50.814;6.368;2022-10-31T01:02:24;8.02;;;5.05;;
15677;SDS011;7939;50.814;6.368;2022-10-31T01:04:52;9.73;;;5.15;;
15677;SDS011;7939;50.814;6.368;2022-10-31T01:07:19;5.60;;;4.45;;
15677;SDS011;7939;50.814;6.368;2022-10-31T01:09:46;8.68;;;4.38;;
15677;SDS011;7939;50.814;6.368;2022-10-31T01:12:12;9.75;;;4.80;;
15677;SDS011;7939;50.814;6.368;2022-10-31T01:14:42;7.95;;;4.70;;
15677;SDS011;7939;50.814;6.368;2022-10-31T01:17:09;9.40;;;4.88;;
15677;SDS011;7939;50.814;6.368;2022-10-31T01:19:36;7.25;;;4.65;;
15677;SDS011;7939;50.814;6.368;2022-10-31T01:22:04;8.75;;;4.93;;
15677;SDS011;7939;50.814;6.368;2022-10-31T01:24:31;7.55;;;5.10;;
15677;SDS011;7939;50.814;6.368;2022-10-31T01:26:57;8.73;;;4.35;;
15677;SDS011;7939;50.814;6.368;2022-10-31T01:29:24;9.93;;;5.25;;
15677;SDS011;7939;50.814;6.368;2022-10-31T01:31:51;7.72;;;4.38;;
15677;SDS011;7939;50.814;6.368;2022-10-31T01:34:18;7.78;;;5.03;;
15677;SDS011;7939;50.814;6.368;2022-10-31T01:36:45;9.27;;;4.68;;
15677;SDS011;7939;50.814;6.368;2022-10-31T01:39:17;5.45;;;4.45;;
15677;SDS011;7939;50.814;6.368;2022-10-31T01:41:45;8.27;;;5.75;;
15677;SDS011;7939;50.814;6.368;2022-10-31T01:47:17;9.48;;;5.65;;
15677;SDS011;7939;50.814;6.368;2022-10-31T01:49:46;8.80;;;4.90;;
15677;SDS011;7939;50.814;6.368;2022-10-31T01:52:18;8.43;;;5.22;;
15677;SDS011;7939;50.814;6.368;2022-10-31T01:54:51;9.00;;;4.70;;
15677;SDS011;7939;50.814;6.368;2022-10-31T01:57:23;6.22;;;3.95;;
15677;SDS011;7939;50.814;6.368;2022-10-31T01:59:53;9.05;;;4.18;;
15677;SDS011;7939;50.814;6.368;2022-10-31T02:02:23;7.95;;;4.88;;
15677;SDS011;7939;50.814;6.368;2022-10-31T02:04:51;6.90;;;4.45;;
15677;SDS011;7939;50.814;6.368;2022-10-31T02:07:20;7.70;;;4.05;;
15677;SDS011;7939;50.814;6.368;2022-10-31T02:09:52;9.23;;;4.93;;
15677;SDS011;7939;50.814;6.368;2022-10-31T02:12:21;9.07;;;4.30;;
15677;SDS011;7939;50.814;6.368;2022-10-31T02:14:47;7.18;;;4.32;;
15677;SDS011;7939;50.814;6.368;2022-10-31T02:17:14;4.78;;;4.22;;
15677;SDS011;7939;50.814;6.368;2022-10-31T02:19:45;6.70;;;4.28;;
15677;SDS011;7939;50.814;6.368;2022-10-31T02:22:19;6.43;;;4.40;;
15677;SDS011;7939;50.814;6.368;2022-10-31T02:24:58;6.03;;;4.57;;
15677;SDS011;7939;50.814;6.368;2022-10-31T02:27:48;6.43;;;4.18;;
15677;SDS011;7939;50.814;6.368;2022-10-31T02:30:31;8.07;;;4.70;;
15677;SDS011;7939;50.814;6.368;2022-10-31T02:33:10;9.85;;;4.50;;
15677;SDS011;7939;50.814;6.368;2022-10-31T02:35:49;8.57;;;5.45;;
15677;SDS011;7939;50.814;6.368;2022-10-31T02:38:29;8.48;;;4.43;;
15677;SDS011;7939;50.814;6.368;2022-10-31T02:41:06;9.20;;;5.00;;
15677;SDS011;7939;50.814;6.368;2022-10-31T02:43:43;8.68;;;4.40;;
15677;SDS011;7939;50.814;6.368;2022-10-31T02:46:19;8.02;;;5.20;;
15677;SDS011;7939;50.814;6.368;2022-10-31T02:48:53;10.15;;;5.03;;
15677;SDS011;7939;50.814;6.368;2022-10-31T02:51:25;9.23;;;4.78;;
15677;SDS011;7939;50.814;6.368;2022-10-31T02:53:52;8.48;;;4.57;;
15677;SDS011;7939;50.814;6.368;2022-10-31T02:56:19;8.75;;;4.60;;
15677;SDS011;7939;50.814;6.368;2022-10-31T02:58:47;10.00;;;5.03;;
15677;SDS011;7939;50.814;6.368;2022-10-31T03:01:22;10.52;;;5.03;;
15677;SDS011;7939;50.814;6.368;2022-10-31T03:04:02;9.60;;;4.97;;
15677;SDS011;7939;50.814;6.368;2022-10-31T03:06:40;8.63;;;4.20;;
15677;SDS011;7939;50.814;6.368;2022-10-31T03:09:13;10.02;;;4.30;;
15677;SDS011;7939;50.814;6.368;2022-10-31T03:11:50;6.97;;;4.55;;
15677;SDS011;7939;50.814;6.368;2022-10-31T03:14:24;6.55;;;4.13;;
15677;SDS011;7939;50.814;6.368;2022-10-31T03:16:57;6.57;;;4.88;;
15677;SDS011;7939;50.814;6.368;2022-10-31T03:19:33;7.40;;;4.20;;
15677;SDS011;7939;50.814;6.368;2022-10-31T03:22:07;8.13;;;4.18;;
15677;SDS011;7939;50.814;6.368;2022-10-31T03:24:41;6.57;;;4.15;;
15677;SDS011;7939;50.814;6.368;2022-10-31T03:27:09;8.68;;;4.78;;
15677;SDS011;7939;50.814;6.368;2022-10-31T03:29:40;7.32;;;4.38;;
15677;SDS011;7939;50.814;6.368;2022-10-31T03:32:10;9.40;;;4.88;;
15677;SDS011;7939;50.814;6.368;2022-10-31T03:34:41;9.77;;;4.95;;
15677;SDS011;7939;50.814;6.368;2022-10-31T03:37:10;8.32;;;4.53;;
15677;SDS011;7939;50.814;6.368;2022-10-31T03:39:40;6.82;;;4.28;;
15677;SDS011;7939;50.814;6.368;2022-10-31T03:42:11;5.57;;;4.10;;
15677;SDS011;7939;50.814;6.368;2022-10-31T03:44:42;6.78;;;3.80;;
15677;SDS011;7939;50.814;6.368;2022-10-31T03:47:12;8.90;;;4.45;;
15677;SDS011;7939;50.814;6.368;2022-10-31T03:49:40;6.93;;;4.90;;
15677;SDS011;7939;50.814;6.368;2022-10-31T03:52:10;10.05;;;4.90;;
15677;SDS011;7939;50.814;6.368;2022-10-31T03:54:45;8.10;;;4.97;;
15677;SDS011;7939;50.814;6.368;2022-10-31T03:57:14;9.23;;;4.50;;
15677;SDS011;7939;50.814;6.368;2022-10-31T03:59:49;6.47;;;4.82;;
15677;SDS011;7939;50.814;6.368;2022-10-31T04:02:20;7.90;;;4.07;;
15677;SDS011;7939;50.814;6.368;2022-10-31T04:04:53;8.25;;;5.05;;
15677;SDS011;7939;50.814;6.368;2022-10-31T04:07:20;8.98;;;5.25;;
15677;SDS011;7939;50.814;6.368;2022-10-31T04:09:50;11.45;;;5.60;;
15677;SDS011;7939;50.814;6.368;2022-10-31T04:12:19;10.65;;;6.30;;
15677;SDS011;7939;50.814;6.368;2022-10-31T04:14:49;8.45;;;6.53;;
15677;SDS011;7939;50.814;6.368;2022-10-31T04:17:19;7.63;;;6.18;;
15677;SDS011;7939;50.814;6.368;2022-10-31T04:19:48;9.70;;;5.63;;
15677;SDS011;7939;50.814;6.368;2022-10-31T04:22:16;9.70;;;5.20;;
15677;SDS011;7939;50.814;6.368;2022-10-31T04:24:43;11.98;;;6.28;;
15677;SDS011;7939;50.814;6.368;2022-10-31T04:27:09;9.18;;;5.70;;
15677;SDS011;7939;50.814;6.368;2022-10-31T04:29:36;11.63;;;6.03;;
15677;SDS011;7939;50.814;6.368;2022-10-31T04:32:03;9.48;;;5.72;;
15677;SDS011;7939;50.814;6.368;2022-10-31T04:34:30;11.55;;;6.45;;
15677;SDS011;7939;50.814;6.368;2022-10-31T04:36:56;7.97;;;6.95;;
15677;SDS011;7939;50.814;6.368;2022-10-31T04:39:24;9.77;;;6.07;;
15677;SDS011;7939;50.814;6.368;2022-10-31T04:41:51;8.25;;;5.88;;
15677;SDS011;7939;50.814;6.368;2022-10-31T04:44:18;8.38;;;5.28;;
15677;SDS011;7939;50.814;6.368;2022-10-31T04:46:44;8.77;;;5.63;;
15677;SDS011;7939;50.814;6.368;2022-10-31T04:49:11;10.57;;;5.53;;
15677;SDS011;7939;50.814;6.368;2022-10-31T04:51:38;9.65;;;4.90;;
15677;SDS011;7939;50.814;6.368;2022-10-31T04:54:04;10.32;;;4.85;;
15677;SDS011;7939;50.814;6.368;2022-10-31T04:56:32;12.30;;;6.45;;
15677;SDS011;7939;50.814;6.368;2022-10-31T04:58:59;9.00;;;6.35;;
15677;SDS011;7939;50.814;6.368;2022-10-31T05:01:25;7.03;;;5.00;;
15677;SDS011;7939;50.814;6.368;2022-10-31T05:03:52;9.90;;;6.03;;
15677;SDS011;7939;50.814;6.368;2022-10-31T05:06:19;11.98;;;5.95;;
15677;SDS011;7939;50.814;6.368;2022-10-31T05:08:45;9.93;;;6.13;;
15677;SDS011;7939;50.814;6.368;2022-10-31T05:11:12;10.27;;;6.07;;
15677;SDS011;7939;50.814;6.368;2022-10-31T05:13:40;11.68;;;6.88;;
15677;SDS011;7939;50.814;6.368;2022-10-31T05:16:07;12.20;;;6.55;;
15677;SDS011;7939;50.814;6.368;2022-10-31T05:18:33;10.55;;;6.20;;
15677;SDS011;7939;50.814;6.368;2022-10-31T05:21:00;11.25;;;6.88;;
15677;SDS011;7939;50.814;6.368;2022-10-31T05:23:27;10.15;;;6.57;;
15677;SDS011;7939;50.814;6.368;2022-10-31T05:25:54;13.05;;;7.20;;
15677;SDS011;7939;50.814;6.368;2022-10-31T05:28:21;18.13;;;8.70;;
15677;SDS011;7939;50.814;6.368;2022-10-31T05:30:48;12.05;;;7.68;;
15677;SDS011;7939;50.814;6.368;2022-10-31T05:33:15;9.02;;;7.07;;
15677;SDS011;7939;50.814;6.368;2022-10-31T05:35:42;13.00;;;6.55;;
15677;SDS011;7939;50.814;6.368;2022-10-31T05:38:09;10.13;;;7.25;;
15677;SDS011;7939;50.814;6.368;2022-10-31T05:40:35;13.38;;;7.57;;
15677;SDS011;7939;50.814;6.368;2022-10-31T05:43:02;12.10;;;6.93;;
15677;SDS011;7939;50.814;6.368;2022-10-31T05:45:29;13.68;;;7.90;;
15677;SDS011;7939;50.814;6.368;2022-10-31T05:47:57;18.08;;;9.60;;
15677;SDS011;7939;50.814;6.368;2022-10-31T05:50:25;13.77;;;8.55;;
15677;SDS011;7939;50.814;6.368;2022-10-31T05:52:54;15.07;;;8.00;;
15677;SDS011;7939;50.814;6.368;2022-10-31T05:55:21;10.73;;;7.20;;
15677;SDS011;7939;50.814;6.368;2022-10-31T05:57:48;13.93;;;8.43;;
15677;SDS011;7939;50.814;6.368;2022-10-31T06:00:15;11.50;;;8.00;;
15677;SDS011;7939;50.814;6.368;2022-10-31T06:02:41;12.77;;;8.13;;
15677;SDS011;7939;50.814;6.368;2022-10-31T06:05:10;13.57;;;8.55;;
15677;SDS011;7939;50.814;6.368;2022-10-31T06:07:36;15.18;;;8.68;;
15677;SDS011;7939;50.814;6.368;2022-10-31T06:10:04;12.85;;;8.35;;
15677;SDS011;7939;50.814;6.368;2022-10-31T06:12:33;14.00;;;8.40;;
15677;SDS011;7939;50.814;6.368;2022-10-31T06:15:02;12.95;;;7.80;;
15677;SDS011;7939;50.814;6.368;2022-10-31T06:17:30;12.20;;;7.63;;
15677;SDS011;7939;50.814;6.368;2022-10-31T06:19:57;15.27;;;8.35;;
15677;SDS011;7939;50.814;6.368;2022-10-31T06:22:25;13.70;;;8.18;;
15677;SDS011;7939;50.814;6.368;2022-10-31T06:24:52;12.38;;;7.63;;
15677;SDS011;7939;50.814;6.368;2022-10-31T06:27:19;11.80;;;8.05;;
15677;SDS011;7939;50.814;6.368;2022-10-31T06:29:46;12.60;;;7.22;;
15677;SDS011;7939;50.814;6.368;2022-10-31T06:32:13;14.13;;;7.45;;
15677;SDS011;7939;50.814;6.368;2022-10-31T06:34:40;10.88;;;7.65;;
15677;SDS011;7939;50.814;6.368;2022-10-31T06:37:07;13.00;;;7.53;;
15677;SDS011;7939;50.814;6.368;2022-10-31T06:39:35;13.40;;;7.45;;
15677;SDS011;7939;50.814;6.368;2022-10-31T06:42:02;18.23;;;9.32;;
15677;SDS011;7939;50.814;6.368;2022-10-31T06:44:30;14.73;;;9.00;;
15677;SDS011;7939;50.814;6.368;2022-10-31T06:46:57;15.13;;;9.70;;
15677;SDS011;7939;50.814;6.368;2022-10-31T06:49:24;16.00;;;9.35;;
15677;SDS011;7939;50.814;6.368;2022-10-31T06:51:50;17.58;;;10.25;;
15677;SDS011;7939;50.814;6.368;2022-10-31T06:54:17;12.55;;;9.13;;
15677;SDS011;7939;50.814;6.368;2022-10-31T06:56:46;16.05;;;9.80;;
15677;SDS011;7939;50.814;6.368;2022-10-31T06:59:13;14.07;;;8.65;;
15677;SDS011;7939;50.814;6.368;2022-10-31T07:01:39;18.40;;;9.38;;
15677;SDS011;7939;50.814;6.368;2022-10-31T07:04:07;16.83;;;10.27;;
15677;SDS011;7939;50.814;6.368;2022-10-31T07:06:35;19.45;;;9.68;;
15677;SDS011;7939;50.814;6.368;2022-10-31T07:09:01;13.68;;;8.57;;
15677;SDS011;7939;50.814;6.368;2022-10-31T07:11:28;15.80;;;9.70;;
15677;SDS011;7939;50.814;6.368;2022-10-31T07:13:56;12.30;;;8.10;;
15677;SDS011;7939;50.814;6.368;2022-10-31T07:16:23;13.50;;;9.60;;
15677;SDS011;7939;50.814;6.368;2022-10-31T07:18:50;14.98;;;9.07;;
15677;SDS011;7939;50.814;6.368;2022-10-31T07:21:16;17.08;;;9.13;;
15677;SDS011;7939;50.814;6.368;2022-10-31T07:23:43;17.92;;;10.25;;
15677;SDS011;7939;50.814;6.368;2022-10-31T07:26:09;18.52;;;10.15;;
15677;SDS011;7939;50.814;6.368;2022-10-31T07:28:36;20.05;;;9.95;;
15677;SDS011;7939;50.814;6.368;2022-10-31T07:31:04;16.77;;;9.65;;
15677;SDS011;7939;50.814;6.368;2022-10-31T07:33:31;22.63;;;11.80;;
15677;SDS011;7939;50.814;6.368;2022-10-31T07:35:58;23.85;;;12.48;;
15677;SDS011;7939;50.814;6.368;2022-10-31T07:38:26;20.75;;;11.48;;
15677;SDS011;7939;50.814;6.368;2022-10-31T07:40:52;21.08;;;11.60;;
15677;SDS011;7939;50.814;6.368;2022-10-31T07:43:19;22.85;;;13.40;;
15677;SDS011;7939;50.814;6.368;2022-10-31T07:45:50;18.38;;;11.07;;
15677;SDS011;7939;50.814;6.368;2022-10-31T07:48:19;28.48;;;14.48;;
15677;SDS011;7939;50.814;6.368;2022-10-31T07:50:46;25.63;;;12.77;;
15677;SDS011;7939;50.814;6.368;2022-10-31T07:53:13;24.42;;;13.43;;
15677;SDS011;7939;50.814;6.368;2022-10-31T07:55:41;22.52;;;12.48;;
15677;SDS011;7939;50.814;6.368;2022-10-31T07:58:08;20.63;;;11.77;;
15677;SDS011;7939;50.814;6.368;2022-10-31T08:00:36;18.77;;;11.48;;
15677;SDS011;7939;50.814;6.368;2022-10-31T08:03:05;23.13;;;11.82;;
15677;SDS011;7939;50.814;6.368;2022-10-31T08:05:34;19.40;;;11.95;;
15677;SDS011;7939;50.814;6.368;2022-10-31T08:08:01;19.52;;;11.50;;
15677;SDS011;7939;50.814;6.368;2022-10-31T08:10:28;23.92;;;12.20;;
15677;SDS011;7939;50.814;6.368;2022-10-31T08:12:55;21.98;;;11.10;;
15677;SDS011;7939;50.814;6.368;2022-10-31T08:15:22;26.92;;;12.02;;
15677;SDS011;7939;50.814;6.368;2022-10-31T08:17:50;28.33;;;13.25;;
15677;SDS011;7939;50.814;6.368;2022-10-31T08:20:16;18.95;;;10.57;;
15677;SDS011;7939;50.814;6.368;2022-10-31T08:22:51;23.30;;;11.40;;
15677;SDS011;7939;50.814;6.368;2022-10-31T08:25:18;25.02;;;12.30;;
15677;SDS011;7939;50.814;6.368;2022-10-31T08:27:47;20.30;;;11.80;;
15677;SDS011;7939;50.814;6.368;2022-10-31T08:30:15;21.52;;;10.63;;
15677;SDS011;7939;50.814;6.368;2022-10-31T08:32:41;22.30;;;11.68;;
15677;SDS011;7939;50.814;6.368;2022-10-31T08:35:08;313.52;;;129.90;;
15677;SDS011;7939;50.814;6.368;2022-10-31T08:37:35;442.88;;;174.35;;
15677;SDS011;7939;50.814;6.368;2022-10-31T08:40:03;543.58;;;319.30;;
15677;SDS011;7939;50.814;6.368;2022-10-31T08:42:31;374.30;;;179.68;;
15677;SDS011;7939;50.814;6.368;2022-10-31T08:44:58;59.08;;;31.05;;
15677;SDS011;7939;50.814;6.368;2022-10-31T08:47:25;38.28;;;19.35;;
15677;SDS011;7939;50.814;6.368;2022-10-31T08:49:52;29.85;;;18.02;;
15677;SDS011;7939;50.814;6.368;2022-10-31T08:52:22;34.28;;;19.15;;
15677;SDS011;7939;50.814;6.368;2022-10-31T08:54:49;27.10;;;15.93;;
15677;SDS011;7939;50.814;6.368;2022-10-31T08:57:17;29.63;;;15.20;;
15677;SDS011;7939;50.814;6.368;2022-10-31T08:59:43;30.83;;;14.75;;
15677;SDS011;7939;50.814;6.368;2022-10-31T09:02:10;27.15;;;14.82;;
15677;SDS011;7939;50.814;6.368;2022-10-31T09:04:37;29.65;;;15.15;;
15677;SDS011;7939;50.814;6.368;2022-10-31T09:07:03;26.95;;;15.65;;
15677;SDS011;7939;50.814;6.368;2022-10-31T09:09:30;34.60;;;18.95;;
15677;SDS011;7939;50.814;6.368;2022-10-31T09:11:57;23.50;;;14.02;;
15677;SDS011;7939;50.814;6.368;2022-10-31T09:14:25;28.10;;;14.65;;
15677;SDS011;7939;50.814;6.368;2022-10-31T09:16:51;25.30;;;14.07;;
15677;SDS011;7939;50.814;6.368;2022-10-31T09:19:18;28.98;;;15.40;;
15677;SDS011;7939;50.814;6.368;2022-10-31T09:21:45;29.25;;;14.25;;
15677;SDS011;7939;50.814;6.368;2022-10-31T09:24:12;30.88;;;14.35;;
15677;SDS011;7939;50.814;6.368;2022-10-31T09:26:38;28.13;;;14.95;;
15677;SDS011;7939;50.814;6.368;2022-10-31T09:29:05;27.65;;;14.43;;
15677;SDS011;7939;50.814;6.368;2022-10-31T09:31:35;24.25;;;13.52;;
15677;SDS011;7939;50.814;6.368;2022-10-31T09:34:02;30.33;;;14.75;;
15677;SDS011;7939;50.814;6.368;2022-10-31T09:36:29;22.10;;;13.82;;
15677;SDS011;7939;50.814;6.368;2022-10-31T09:38:55;24.67;;;14.05;;
15677;SDS011;7939;50.814;6.368;2022-10-31T09:41:24;24.13;;;14.32;;
15677;SDS011;7939;50.814;6.368;2022-10-31T09:43:56;30.38;;;14.65;;
15677;SDS011;7939;50.814;6.368;2022-10-31T09:46:30;22.60;;;12.85;;
15677;SDS011;7939;50.814;6.368;2022-10-31T09:51:57;22.90;;;12.98;;
15677;SDS011;7939;50.814;6.368;2022-10-31T09:54:31;21.25;;;11.77;;
15677;SDS011;7939;50.814;6.368;2022-10-31T09:57:02;22.20;;;10.93;;
15677;SDS011;7939;50.814;6.368;2022-10-31T09:59:33;19.77;;;10.63;;
15677;SDS011;7939;50.814;6.368;2022-10-31T10:02:02;19.20;;;10.88;;
15677;SDS011;7939;50.814;6.368;2022-10-31T10:04:36;18.83;;;10.93;;
15677;SDS011;7939;50.814;6.368;2022-10-31T10:07:11;17.45;;;10.13;;
15677;SDS011;7939;50.814;6.368;2022-10-31T10:09:44;18.35;;;9.05;;
15677;SDS011;7939;50.814;6.368;2022-10-31T10:12:13;14.25;;;9.13;;
15677;SDS011;7939;50.814;6.368;2022-10-31T10:14:50;16.58;;;9.07;;
15677;SDS011;7939;50.814;6.368;2022-10-31T10:17:29;15.45;;;9.02;;
15677;SDS011;7939;50.814;6.368;2022-10-31T10:20:10;14.85;;;9.10;;
15677;SDS011;7939;50.814;6.368;2022-10-31T10:22:46;19.13;;;9.38;;
15677;SDS011;7939;50.814;6.368;2022-10-31T10:25:20;12.98;;;7.80;;
15677;SDS011;7939;50.814;6.368;2022-10-31T10:27:50;16.85;;;6.65;;
15677;SDS011;7939;50.814;6.368;2022-10-31T10:30:26;15.15;;;8.05;;
15677;SDS011;7939;50.814;6.368;2022-10-31T10:32:59;10.57;;;6.43;;
15677;SDS011;7939;50.814;6.368;2022-10-31T10:35:32;14.32;;;6.05;;
15677;SDS011;7939;50.814;6.368;2022-10-31T10:38:01;10.95;;;6.30;;
15677;SDS011;7939;50.814;6.368;2022-10-31T10:40:35;13.45;;;7.30;;
15677;SDS011;7939;50.814;6.368;2022-10-31T10:43:10;10.07;;;5.90;;
15677;SDS011;7939;50.814;6.368;2022-10-31T10:45:52;7.88;;;5.07;;
15677;SDS011;7939;50.814;6.368;2022-10-31T10:48:45;13.23;;;6.57;;
15677;SDS011;7939;50.814;6.368;2022-10-31T10:51:23;11.77;;;5.90;;
15677;SDS011;7939;50.814;6.368;2022-10-31T10:53:57;8.38;;;5.68;;
15677;SDS011;7939;50.814;6.368;2022-10-31T10:56:45;11.60;;;5.47;;
15677;SDS011;7939;50.814;6.368;2022-10-31T10:59:20;10.82;;;5.30;;
15677;SDS011;7939;50.814;6.368;2022-10-31T11:01:48;8.60;;;5.95;;
15677;SDS011;7939;50.814;6.368;2022-10-31T11:04:28;12.60;;;5.55;;
15677;SDS011;7939;50.814;6.368;2022-10-31T11:06:58;11.35;;;5.40;;
15677;SDS011;7939;50.814;6.368;2022-10-31T11:09:26;11.88;;;4.97;;
15677;SDS011;7939;50.814;6.368;2022-10-31T11:11:53;9.50;;;5.57;;
15677;SDS011;7939;50.814;6.368;2022-10-31T11:14:22;12.10;;;5.88;;
15677;SDS011;7939;50.814;6.368;2022-10-31T11:16:49;9.13;;;5.03;;
15677;SDS011;7939;50.814;6.368;2022-10-31T11:19:20;13.30;;;5.55;;
15677;SDS011;7939;50.814;6.368;2022-10-31T11:21:48;8.02;;;5.05;;
15677;SDS011;7939;50.814;6.368;2022-10-31T11:24:17;7.57;;;5.63;;
15677;SDS011;7939;50.814;6.368;2022-10-31T11:26:46;9.68;;;5.75;;
15677;SDS011;7939;50.814;6.368;2022-10-31T11:29:15;11.80;;;5.72;;
15677;SDS011;7939;50.814;6.368;2022-10-31T11:31:44;11.20;;;5.93;;
15677;SDS011;7939;50.814;6.368;2022-10-31T11:34:14;13.85;;;6.13;;
15677;SDS011;7939;50.814;6.368;2022-10-31T11:36:45;10.27;;;5.88;;
15677;SDS011;7939;50.814;6.368;2022-10-31T11:39:14;12.35;;;6.38;;
15677;SDS011;7939;50.814;6.368;2022-10-31T11:41:46;10.35;;;5.80;;
15677;SDS011;7939;50.814;6.368;2022-10-31T11:44:15;9.05;;;5.22;;
15677;SDS011;7939;50.814;6.368;2022-10-31T11:46:45;9.13;;;5.00;;
15677;SDS011;7939;50.814;6.368;2022-10-31T11:49:15;10.90;;;5.10;;
15677;SDS011;7939;50.814;6.368;2022-10-31T11:51:46;10.60;;;5.07;;
15677;SDS011;7939;50.814;6.368;2022-10-31T11:54:19;11.60;;;5.10;;
15677;SDS011;7939;50.814;6.368;2022-10-31T11:56:49;11.13;;;5.30;;
15677;SDS011;7939;50.814;6.368;2022-10-31T11:59:26;9.32;;;5.18;;
15677;SDS011;7939;50.814;6.368;2022-10-31T12:01:55;7.60;;;4.97;;
15677;SDS011;7939;50.814;6.368;2022-10-31T12:04:26;8.27;;;5.47;;
15677;SDS011;7939;50.814;6.368;2022-10-31T12:06:57;10.48;;;5.10;;
15677;SDS011;7939;50.814;6.368;2022-10-31T12:09:25;16.77;;;7.85;;
15677;SDS011;7939;50.814;6.368;2022-10-31T12:11:59;10.27;;;6.30;;
15677;SDS011;7939;50.814;6.368;2022-10-31T12:14:49;14.27;;;7.05;;
15677;SDS011;7939;50.814;6.368;2022-10-31T12:17:25;15.80;;;8.05;;
15677;SDS011;7939;50.814;6.368;2022-10-31T12:20:00;16.65;;;8.82;;
15677;SDS011;7939;50.814;6.368;2022-10-31T12:22:35;12.38;;;7.28;;
15677;SDS011;7939;50.814;6.368;2022-10-31T12:25:13;13.60;;;7.60;;
15677;SDS011;7939;50.814;6.368;2022-10-31T12:27:51;13.85;;;6.72;;
15677;SDS011;7939;50.814;6.368;2022-10-31T12:30:27;13.82;;;6.90;;
15677;SDS011;7939;50.814;6.368;2022-10-31T12:33:17;13.50;;;6.50;;
15677;SDS011;7939;50.814;6.368;2022-10-31T12:36:10;9.75;;;5.68;;
15677;SDS011;7939;50.814;6.368;2022-10-31T12:38:49;14.43;;;5.85;;
15677;SDS011;7939;50.814;6.368;2022-10-31T12:41:33;9.88;;;6.40;;
15677;SDS011;7939;50.814;6.368;2022-10-31T12:44:13;11.70;;;6.25;;
15677;SDS011;7939;50.814;6.368;2022-10-31T12:46:55;11.30;;;5.85;;
15677;SDS011;7939;50.814;6.368;2022-10-31T12:49:33;13.55;;;7.22;;
15677;SDS011;7939;50.814;6.368;2022-10-31T12:52:13;12.38;;;5.38;;
15677;SDS011;7939;50.814;6.368;2022-10-31T12:54:55;9.60;;;5.07;;
15677;SDS011;7939;50.814;6.368;2022-10-31T12:57:35;9.52;;;5.03;;
15677;SDS011;7939;50.814;6.368;2022-10-31T13:00:10;10.45;;;4.88;;
15677;SDS011;7939;50.814;6.368;2022-10-31T13:02:41;11.95;;;5.18;;
15677;SDS011;7939;50.814;6.368;2022-10-31T13:05:24;10.98;;;6.53;;
15677;SDS011;7939;50.814;6.368;2022-10-31T13:07:55;9.70;;;4.93;;
15677;SDS011;7939;50.814;6.368;2022-10-31T13:10:27;10.52;;;5.65;;
15677;SDS011;7939;50.814;6.368;2022-10-31T13:13:00;12.63;;;5.97;;
15677;SDS011;7939;50.814;6.368;2022-10-31T13:15:35;12.85;;;6.55;;
15677;SDS011;7939;50.814;6.368;2022-10-31T13:18:12;9.52;;;5.32;;
15677;SDS011;7939;50.814;6.368;2022-10-31T13:20:45;15.95;;;5.97;;
15677;SDS011;7939;50.814;6.368;2022-10-31T13:23:14;11.80;;;5.28;;
15677;SDS011;7939;50.814;6.368;2022-10-31T13:25:46;11.50;;;6.15;;
15677;SDS011;7939;50.814;6.368;2022-10-31T13:28:23;13.23;;;6.30;;
15677;SDS011;7939;50.814;6.368;2022-10-31T13:30:52;12.55;;;5.63;;
15677;SDS011;7939;50.814;6.368;2022-10-31T13:33:20;8.88;;;5.32;;
15677;SDS011;7939;50.814;6.368;2022-10-31T13:35:51;9.93;;;5.20;;
15677;SDS011;7939;50.814;6.368;2022-10-31T13:38:22;8.05;;;5.25;;
15677;SDS011;7939;50.814;6.368;2022-10-31T13:40:57;11.38;;;5.68;;
15677;SDS011;7939;50.814;6.368;2022-10-31T13:43:31;11.73;;;5.07;;
15677;SDS011;7939;50.814;6.368;2022-10-31T13:46:21;11.23;;;5.13;;
15677;SDS011;7939;50.814;6.368;2022-10-31T13:48:49;11.85;;;5.25;;
15677;SDS011;7939;50.814;6.368;2022-10-31T13:51:24;8.50;;;5.22;;
15677;SDS011;7939;50.814;6.368;2022-10-31T13:53:57;10.90;;;4.68;;
15677;SDS011;7939;50.814;6.368;2022-10-31T13:56:26;14.82;;;5.38;;
15677;SDS011;7939;50.814;6.368;2022-10-31T13:59:15;10.70;;;5.10;;
15677;SDS011;7939;50.814;6.368;2022-10-31T14:01:46;11.13;;;4.90;;
15677;SDS011;7939;50.814;6.368;2022-10-31T14:04:15;13.45;;;5.35;;
15677;SDS011;7939;50.814;6.368;2022-10-31T14:06:46;10.02;;;4.68;;
15677;SDS011;7939;50.814;6.368;2022-10-31T14:09:24;9.68;;;5.10;;
15677;SDS011;7939;50.814;6.368;2022-10-31T14:11:53;12.68;;;5.03;;
15677;SDS011;7939;50.814;6.368;2022-10-31T14:14:23;9.70;;;4.05;;
15677;SDS011;7939;50.814;6.368;2022-10-31T14:16:56;10.05;;;4.47;;
15677;SDS011;7939;50.814;6.368;2022-10-31T14:19:24;8.27;;;5.50;;
15677;SDS011;7939;50.814;6.368;2022-10-31T14:21:52;10.65;;;4.93;;
15677;SDS011;7939;50.814;6.368;2022-10-31T14:24:32;7.47;;;4.78;;
15677;SDS011;7939;50.814;6.368;2022-10-31T14:27:02;9.85;;;5.10;;
15677;SDS011;7939;50.814;6.368;2022-10-31T14:29:32;11.43;;;5.38;;
15677;SDS011;7939;50.814;6.368;2022-10-31T14:32:04;8.00;;;4.47;;
15677;SDS011;7939;50.814;6.368;2022-10-31T14:34:40;13.30;;;4.63;;
15677;SDS011;7939;50.814;6.368;2022-10-31T14:37:14;10.63;;;5.47;;
15677;SDS011;7939;50.814;6.368;2022-10-31T14:39:57;12.90;;;4.60;;
15677;SDS011;7939;50.814;6.368;2022-10-31T14:42:37;6.72;;;3.55;;
15677;SDS011;7939;50.814;6.368;2022-10-31T14:45:20;12.30;;;5.18;;
15677;SDS011;7939;50.814;6.368;2022-10-31T14:48:00;8.57;;;4.57;;
15677;SDS011;7939;50.814;6.368;2022-10-31T14:50:41;7.32;;;4.22;;
15677;SDS011;7939;50.814;6.368;2022-10-31T14:53:12;13.57;;;4.85;;
15677;SDS011;7939;50.814;6.368;2022-10-31T14:55:44;9.07;;;4.45;;
15677;SDS011;7939;50.814;6.368;2022-10-31T14:58:15;13.95;;;4.68;;
15677;SDS011;7939;50.814;6.368;2022-10-31T15:00:46;9.98;;;4.65;;
15677;SDS011;7939;50.814;6.368;2022-10-31T15:03:21;6.60;;;4.10;;
15677;SDS011;7939;50.814;6.368;2022-10-31T15:05:52;11.65;;;4.75;;
15677;SDS011;7939;50.814;6.368;2022-10-31T15:11:11;6.93;;;3.97;;
15677;SDS011;7939;50.814;6.368;2022-10-31T15:13:42;8.43;;;4.22;;
15677;SDS011;7939;50.814;6.368;2022-10-31T15:16:12;8.88;;;5.28;;
15677;SDS011;7939;50.814;6.368;2022-10-31T15:18:45;7.40;;;4.28;;